Time;durP1;ratioP1;P1;durP2;ratioP2;P2;SDS_P1;SDS_P2;PMS_P1;PMS_P2;Temp;Humidity;BMP_temperature;BMP_pressure;BME280_temperature;BME280_humidity;BME280_pressure;Samples;Min_cycle;Max_cycle;Signal;HPM_P1;HPM_P2
2020/12/12 00:00:54;;;;;;;78.43;36.53;;;2.90;99.90;;;;;;5055118;28;20052;-82
2020/12/12 00:03:20;;;;;;;85.07;36.55;;;2.90;99.90;;;;;;5054748;28;20075;-81
2020/12/12 00:05:45;;;;;;;88.97;37.50;;;2.90;99.90;;;;;;5054819;28;20021;-81
2020/12/12 00:08:11;;;;;;;90.45;39.25;;;2.80;99.90;;;;;;5053707;28;20025;-81
2020/12/12 00:10:37;;;;;;;89.05;36.35;;;2.80;99.90;;;;;;5054890;28;20033;-83
2020/12/12 00:13:03;;;;;;;88.30;35.95;;;2.80;99.90;;;;;;5054395;28;20048;-82
2020/12/12 00:15:29;;;;;;;93.20;38.45;;;2.80;99.90;;;;;;5054658;28;20393;-82
2020/12/12 00:17:54;;;;;;;96.10;41.15;;;2.80;99.90;;;;;;5053522;28;20055;-82
2020/12/12 00:20:20;;;;;;;105.03;38.80;;;2.80;99.90;;;;;;5054729;28;20070;-82
2020/12/12 00:22:45;;;;;;;102.38;39.65;;;2.80;99.90;;;;;;5053782;28;20037;-82
2020/12/12 00:25:11;;;;;;;99.93;41.35;;;2.70;99.90;;;;;;5053244;28;20207;-81
2020/12/12 00:27:37;;;;;;;88.90;37.65;;;2.70;99.90;;;;;;5054258;28;20021;-81
2020/12/12 00:30:04;;;;;;;93.90;37.15;;;2.50;99.90;;;;;;5054542;28;20033;-82
2020/12/12 00:32:30;;;;;;;97.20;36.88;;;2.50;99.90;;;;;;5054410;28;20077;-82
2020/12/12 00:34:57;;;;;;;92.97;38.97;;;2.50;99.90;;;;;;5054005;28;20111;-82
2020/12/12 00:37:22;;;;;;;102.30;39.72;;;2.40;99.90;;;;;;5053160;28;20032;-82
2020/12/12 00:39:49;;;;;;;102.53;41.78;;;2.40;99.90;;;;;;5053084;28;20021;-81
2020/12/12 00:42:14;;;;;;;92.90;38.08;;;2.40;99.90;;;;;;5054074;28;20410;-81
2020/12/12 00:44:40;;;;;;;105.30;38.88;;;2.40;99.90;;;;;;5052582;28;20025;-82
2020/12/12 00:47:06;;;;;;;98.95;38.85;;;2.40;99.90;;;;;;5052285;28;20022;-82
2020/12/12 00:49:32;;;;;;;99.72;41.90;;;2.40;99.90;;;;;;5053002;28;20057;-82
2020/12/12 00:51:57;;;;;;;106.03;41.65;;;2.50;99.90;;;;;;5054098;28;20021;-82
2020/12/12 00:54:23;;;;;;;105.90;41.75;;;2.50;99.90;;;;;;5052499;28;20074;-83
2020/12/12 00:56:48;;;;;;;111.70;40.47;;;2.50;99.90;;;;;;5053875;28;20032;-81
2020/12/12 00:59:14;;;;;;;103.50;39.53;;;2.60;99.90;;;;;;5053877;28;20112;-83
2020/12/12 01:01:40;;;;;;;105.22;41.83;;;2.60;99.90;;;;;;5053909;28;20025;-82
2020/12/12 01:04:05;;;;;;;111.95;42.75;;;2.60;99.90;;;;;;5053170;28;20064;-83
2020/12/12 01:06:31;;;;;;;112.03;41.97;;;2.60;99.90;;;;;;5053855;28;20047;-82
2020/12/12 01:08:56;;;;;;;103.03;40.38;;;2.60;99.90;;;;;;5053818;28;20017;-82
2020/12/12 01:11:22;;;;;;;112.40;43.03;;;2.60;99.90;;;;;;5052346;28;20363;-82
2020/12/12 01:13:48;;;;;;;103.43;42.13;;;2.60;99.90;;;;;;5053183;28;20033;-82
2020/12/12 01:16:15;;;;;;;120.97;45.22;;;2.70;99.90;;;;;;5079747;22;20044;-80
2020/12/12 01:18:41;;;;;;;113.00;44.13;;;2.70;99.90;;;;;;5072287;28;20017;-79
2020/12/12 01:21:07;;;;;;;112.60;43.38;;;2.70;99.90;;;;;;5073315;28;20116;-79
2020/12/12 01:23:33;;;;;;;99.93;40.50;;;2.70;99.90;;;;;;5072829;28;20170;-80
2020/12/12 01:26:00;;;;;;;109.65;43.97;;;2.70;99.90;;;;;;5073231;28;20035;-80
2020/12/12 01:28:26;;;;;;;106.55;41.35;;;2.70;99.90;;;;;;5071950;28;20150;-80
2020/12/12 01:30:53;;;;;;;99.05;41.50;;;2.70;99.90;;;;;;5072190;28;20021;-80
2020/12/12 01:33:22;;;;;;;107.63;43.35;;;2.70;99.90;;;;;;5072563;28;20039;-80
2020/12/12 01:35:48;;;;;;;103.53;40.60;;;2.70;99.90;;;;;;5073080;28;20028;-80
2020/12/12 01:38:14;;;;;;;115.43;43.85;;;2.70;99.90;;;;;;5073197;28;20033;-79
2020/12/12 01:40:40;;;;;;;106.57;44.08;;;2.70;99.90;;;;;;5071915;28;20552;-80
2020/12/12 01:43:08;;;;;;;118.72;44.03;;;2.70;99.90;;;;;;5066857;28;20104;-80
2020/12/12 01:45:34;;;;;;;110.57;44.95;;;2.70;99.90;;;;;;5052889;28;20040;-80
2020/12/12 01:48:00;;;;;;;102.63;41.95;;;2.70;99.90;;;;;;5053168;28;20021;-79
2020/12/12 01:50:27;;;;;;;104.53;43.28;;;2.70;99.90;;;;;;5053029;28;20029;-79
2020/12/12 01:52:52;;;;;;;111.15;44.92;;;2.70;99.90;;;;;;5052718;28;20028;-80
2020/12/12 01:55:21;;;;;;;115.00;45.95;;;2.70;99.90;;;;;;5071489;28;20021;-80
2020/12/12 01:57:49;;;;;;;118.10;44.40;;;2.70;99.90;;;;;;5072486;28;20051;-79
2020/12/12 02:00:16;;;;;;;114.07;43.67;;;2.70;99.90;;;;;;5070694;28;20033;-80
2020/12/12 02:02:45;;;;;;;113.05;44.55;;;2.70;99.90;;;;;;5072739;28;20028;-80
2020/12/12 02:05:38;;;;;;;114.28;44.35;;;2.70;99.90;;;;;;5054752;28;20021;-80
2020/12/12 02:08:01;;;;;;;118.43;43.90;;;2.70;99.90;;;;;;5053612;28;20085;-80
2020/12/12 02:10:27;;;;;;;116.50;43.42;;;2.70;99.90;;;;;;5052576;28;20025;-80
2020/12/12 02:12:52;;;;;;;109.63;43.03;;;2.70;99.90;;;;;;5056007;28;20031;-80
2020/12/12 02:15:18;;;;;;;110.80;43.83;;;2.70;99.90;;;;;;5072309;28;20029;-80
2020/12/12 02:17:46;;;;;;;111.35;44.67;;;2.80;99.90;;;;;;5072326;28;20119;-79
2020/12/12 02:20:11;;;;;;;115.15;43.00;;;2.70;99.90;;;;;;5072415;28;20039;-80
2020/12/12 02:22:37;;;;;;;113.05;43.13;;;2.70;99.90;;;;;;5071061;28;20028;-79
2020/12/12 02:25:02;;;;;;;114.18;45.38;;;2.70;99.90;;;;;;5052887;28;20443;-80
2020/12/12 02:27:28;;;;;;;104.75;43.80;;;2.70;99.90;;;;;;5050995;28;20025;-79
2020/12/12 02:29:53;;;;;;;117.43;46.53;;;2.70;99.90;;;;;;5052218;28;20024;-80
2020/12/12 02:32:19;;;;;;;113.15;46.78;;;2.70;99.90;;;;;;5051006;28;20485;-80
2020/12/12 02:34:45;;;;;;;100.38;40.70;;;2.70;99.90;;;;;;5065113;28;20029;-79
2020/12/12 02:37:11;;;;;;;105.22;42.47;;;2.70;99.90;;;;;;5072125;28;20589;-80
2020/12/12 02:39:36;;;;;;;117.25;44.60;;;2.70;99.90;;;;;;5072116;28;20025;-80
2020/12/12 02:42:02;;;;;;;110.30;45.15;;;2.70;99.90;;;;;;5070814;28;20024;-80
2020/12/12 02:44:28;;;;;;;107.88;42.25;;;2.70;99.90;;;;;;5054275;28;20381;-79
2020/12/12 02:46:53;;;;;;;96.00;42.92;;;2.80;99.90;;;;;;5051982;28;20090;-80
2020/12/12 02:49:23;;;;;;;109.10;42.60;;;2.70;99.90;;;;;;5050803;28;20029;-80
2020/12/12 02:51:49;;;;;;;102.60;42.03;;;2.70;99.90;;;;;;5051897;28;20060;-79
2020/12/12 02:54:15;;;;;;;93.43;41.00;;;2.80;99.90;;;;;;5063913;28;20063;-80
2020/12/12 02:56:40;;;;;;;110.60;42.53;;;2.80;99.90;;;;;;5071756;28;20028;-80
2020/12/12 02:59:06;;;;;;;104.28;43.53;;;2.80;99.90;;;;;;5071438;28;20047;-80
2020/12/12 03:01:31;;;;;;;108.22;42.83;;;2.80;99.90;;;;;;5072134;28;20060;-80
2020/12/12 03:03:57;;;;;;;103.88;41.78;;;2.70;99.90;;;;;;5064271;28;20496;-80
2020/12/12 03:06:22;;;;;;;101.70;41.85;;;2.70;99.90;;;;;;5051744;28;20040;-80
2020/12/12 03:08:48;;;;;;;115.13;43.45;;;2.80;99.90;;;;;;5051651;28;20052;-80
2020/12/12 03:11:14;;;;;;;101.70;42.90;;;2.80;99.90;;;;;;5051396;28;20029;-80
2020/12/12 03:13:39;;;;;;;102.45;43.40;;;2.80;99.90;;;;;;5061487;28;20106;-79
2020/12/12 03:16:05;;;;;;;105.90;42.22;;;2.80;99.90;;;;;;5070661;28;20028;-79
2020/12/12 03:18:30;;;;;;;106.38;43.10;;;2.80;99.90;;;;;;5071348;28;20100;-80
2020/12/12 03:20:56;;;;;;;102.85;42.45;;;2.80;99.90;;;;;;5071732;28;20392;-79
2020/12/12 03:23:21;;;;;;;108.40;43.38;;;2.80;99.90;;;;;;5066276;28;20033;-80
2020/12/12 03:25:47;;;;;;;114.05;43.78;;;2.80;99.90;;;;;;5051376;28;20021;-80
2020/12/12 03:28:13;;;;;;;112.82;43.42;;;2.80;99.90;;;;;;5057611;28;20063;-80
2020/12/12 03:30:38;;;;;;;107.43;44.17;;;2.80;99.90;;;;;;5070370;28;20020;-80
2020/12/12 03:33:04;;;;;;;111.53;44.03;;;2.80;99.90;;;;;;5071196;28;20078;-80
2020/12/12 03:35:31;;;;;;;108.35;43.45;;;2.80;99.90;;;;;;5051423;28;20060;-80
2020/12/12 03:37:58;;;;;;;109.38;43.67;;;2.70;99.90;;;;;;5051432;28;20384;-80
2020/12/12 03:40:24;;;;;;;113.50;44.50;;;2.80;99.90;;;;;;5051508;28;20028;-80
2020/12/12 03:42:53;;;;;;;111.82;45.08;;;2.80;99.90;;;;;;5053136;28;20505;-81
2020/12/12 03:45:20;;;;;;;109.80;43.92;;;2.80;99.90;;;;;;5071158;28;20064;-80
2020/12/12 03:47:47;;;;;;;110.72;45.72;;;2.80;99.90;;;;;;5071426;28;20025;-80
2020/12/12 03:50:13;;;;;;;105.18;42.63;;;2.80;99.90;;;;;;5070209;28;20168;-79
2020/12/12 03:52:39;;;;;;;111.93;43.65;;;2.80;99.90;;;;;;5071388;28;20095;-80
2020/12/12 03:55:05;;;;;;;101.30;40.65;;;2.80;99.90;;;;;;5050433;28;20039;-80
2020/12/12 03:57:30;;;;;;;108.22;42.35;;;2.80;99.90;;;;;;5049795;28;20374;-80
2020/12/12 03:59:56;;;;;;;109.65;43.60;;;2.80;99.90;;;;;;5051291;28;20032;-80
2020/12/12 04:02:21;;;;;;;107.82;43.50;;;2.80;99.90;;;;;;5051255;28;20032;-80
2020/12/12 04:04:47;;;;;;;110.38;41.70;;;2.80;99.90;;;;;;5063389;28;20075;-80
2020/12/12 04:07:12;;;;;;;94.38;41.67;;;2.80;99.90;;;;;;5070845;28;20059;-80
2020/12/12 04:09:38;;;;;;;89.25;40.47;;;2.80;99.90;;;;;;5071215;28;20042;-79
2020/12/12 04:12:04;;;;;;;92.70;40.38;;;2.90;99.90;;;;;;5071238;28;20027;-79
2020/12/12 04:14:29;;;;;;;103.72;43.53;;;2.80;99.90;;;;;;5052270;28;20029;-80
2020/12/12 04:16:55;;;;;;;104.43;44.50;;;2.80;99.90;;;;;;5050910;28;20040;-80
2020/12/12 04:19:21;;;;;;;103.38;41.85;;;2.80;99.90;;;;;;5049931;28;20460;-79
2020/12/12 04:21:46;;;;;;;109.53;44.90;;;2.80;99.90;;;;;;5051011;28;20032;-80
2020/12/12 04:24:12;;;;;;;108.07;43.67;;;2.80;99.90;;;;;;5065683;28;20031;-79
2020/12/12 04:26:38;;;;;;;107.18;43.45;;;2.80;99.90;;;;;;5073310;28;20021;-80
2020/12/12 04:29:04;;;;;;;110.13;45.42;;;2.80;99.90;;;;;;5074240;28;20039;-80
2020/12/12 04:31:30;;;;;;;109.93;42.95;;;2.80;99.90;;;;;;5073268;28;20021;-80
2020/12/12 04:33:55;;;;;;;110.30;44.83;;;2.80;99.90;;;;;;5067614;28;20063;-80
2020/12/12 04:36:21;;;;;;;116.22;45.97;;;2.80;99.90;;;;;;5054376;28;20053;-80
2020/12/12 04:38:48;;;;;;;105.82;42.90;;;2.80;99.90;;;;;;5054465;28;20079;-80
2020/12/12 04:41:14;;;;;;;109.57;42.95;;;2.80;99.90;;;;;;5053162;28;20036;-80
2020/12/12 04:43:41;;;;;;;107.80;47.22;;;2.80;99.90;;;;;;5064182;28;20047;-80
2020/12/12 04:46:07;;;;;;;119.25;47.40;;;2.80;99.90;;;;;;5072877;28;20032;-80
2020/12/12 04:48:33;;;;;;;120.30;47.35;;;2.80;99.90;;;;;;5073006;28;20024;-79
2020/12/12 04:50:59;;;;;;;112.50;44.08;;;2.80;99.90;;;;;;5074229;28;20095;-79
2020/12/12 04:53:25;;;;;;;106.55;45.65;;;2.80;99.90;;;;;;5073340;28;20094;-79
2020/12/12 04:55:53;;;;;;;114.90;45.83;;;2.80;99.90;;;;;;5073867;28;20036;-80
2020/12/12 04:58:27;;;;;;;114.38;45.88;;;2.80;99.90;;;;;;5073698;28;20104;-80
2020/12/12 05:00:56;;;;;;;107.00;45.05;;;2.80;99.90;;;;;;5074097;28;20028;-80
2020/12/12 05:03:25;;;;;;;119.65;46.28;;;2.80;99.90;;;;;;5071724;28;20112;-80
2020/12/12 05:05:51;;;;;;;106.63;45.28;;;2.80;99.90;;;;;;5053669;28;20029;-80
2020/12/12 05:08:17;;;;;;;110.18;45.83;;;2.80;99.90;;;;;;5053692;28;20027;-80
2020/12/12 05:10:48;;;;;;;105.10;44.45;;;2.80;99.90;;;;;;5052555;28;20469;-79
2020/12/12 05:13:25;;;;;;;113.03;45.67;;;2.80;99.90;;;;;;5054906;28;20438;-80
2020/12/12 05:15:55;;;;;;;110.97;44.15;;;2.80;99.90;;;;;;5053452;28;20543;-80
2020/12/12 05:18:21;;;;;;;119.20;46.33;;;2.80;99.90;;;;;;5052546;28;20469;-80
2020/12/12 05:20:47;;;;;;;103.95;44.75;;;2.70;99.90;;;;;;5052288;28;20397;-80
2020/12/12 05:23:25;;;;;;;111.80;46.53;;;2.70;99.90;;;;;;5055548;28;20036;-80
2020/12/12 05:25:52;;;;;;;104.40;43.50;;;2.70;99.90;;;;;;5073350;28;20032;-80
2020/12/12 05:28:21;;;;;;;113.30;42.25;;;2.70;99.90;;;;;;5064830;28;20028;-80
2020/12/12 05:30:48;;;;;;;108.40;45.17;;;2.70;99.90;;;;;;5052275;28;20022;-79
2020/12/12 05:33:17;;;;;;;99.05;42.83;;;2.70;99.90;;;;;;5069817;28;20029;-80
2020/12/12 05:35:43;;;;;;;97.15;42.33;;;2.70;99.90;;;;;;5072959;28;20031;-79
2020/12/12 05:38:10;;;;;;;110.55;44.75;;;2.70;99.90;;;;;;5072089;28;20081;-80
2020/12/12 05:40:41;;;;;;;98.13;41.65;;;2.70;99.90;;;;;;5073285;28;20028;-80
2020/12/12 05:43:09;;;;;;;103.57;44.88;;;2.70;99.90;;;;;;5059748;28;20044;-80
2020/12/12 05:45:36;;;;;;;116.55;45.42;;;2.70;99.90;;;;;;5051581;28;20021;-80
2020/12/12 05:48:06;;;;;;;111.00;44.55;;;2.70;99.90;;;;;;5051804;28;20460;-80
2020/12/12 05:50:32;;;;;;;113.28;43.28;;;2.70;99.90;;;;;;5053035;28;20100;-79
2020/12/12 05:52:58;;;;;;;97.38;42.25;;;2.70;99.90;;;;;;5061920;28;20104;-80
2020/12/12 05:55:28;;;;;;;106.57;43.80;;;2.70;99.90;;;;;;5072741;28;20048;-80
2020/12/12 05:57:54;;;;;;;98.47;42.53;;;2.70;99.90;;;;;;5072269;28;20040;-80
2020/12/12 06:00:21;;;;;;;96.85;42.65;;;2.70;99.90;;;;;;5071580;28;20028;-79
2020/12/12 06:02:55;;;;;;;96.78;41.58;;;2.70;99.90;;;;;;5067792;28;20047;-80
2020/12/12 06:05:29;;;;;;;92.72;40.95;;;2.70;99.90;;;;;;5051448;28;20021;-80
2020/12/12 06:07:59;;;;;;;91.20;39.80;;;2.70;99.90;;;;;;5051284;28;20022;-80
2020/12/12 06:10:30;;;;;;;83.38;37.85;;;2.70;99.90;;;;;;5052711;28;20027;-80
2020/12/12 06:12:58;;;;;;;88.93;41.08;;;2.70;99.90;;;;;;5056388;28;20055;-80
2020/12/12 06:15:35;;;;;;;96.20;40.47;;;2.70;99.90;;;;;;5072227;28;20028;-80
2020/12/12 06:18:22;;;;;;;103.72;39.72;;;2.70;99.90;;;;;;5071364;28;20043;-80
2020/12/12 06:20:51;;;;;;;98.82;40.22;;;2.70;99.90;;;;;;5072391;28;20048;-79
2020/12/12 06:23:18;;;;;;;91.45;39.80;;;2.70;99.90;;;;;;5066787;28;20377;-79
2020/12/12 06:25:43;;;;;;;98.70;41.95;;;2.70;99.90;;;;;;5052089;28;20079;-80
2020/12/12 06:28:18;;;;;;;94.80;39.55;;;2.60;99.90;;;;;;5052384;28;20024;-79
2020/12/12 06:30:44;;;;;;;97.10;40.90;;;2.70;99.90;;;;;;5052407;28;20070;-79
2020/12/12 06:33:10;;;;;;;90.85;39.85;;;2.70;99.90;;;;;;5050853;28;20029;-80
2020/12/12 06:35:38;;;;;;;88.95;39.72;;;2.70;99.90;;;;;;5070637;28;20036;-80
2020/12/12 06:38:24;;;;;;;92.70;40.75;;;2.70;99.90;;;;;;5070957;28;20058;-80
2020/12/12 06:40:53;;;;;;;90.57;41.45;;;2.70;99.90;;;;;;5072186;28;20053;-80
2020/12/12 06:43:25;;;;;;;87.10;39.15;;;2.70;99.90;;;;;;5064674;28;20029;-80
2020/12/12 06:45:51;;;;;;;91.10;39.90;;;2.70;99.90;;;;;;5051074;28;20385;-80
2020/12/12 06:48:25;;;;;;;98.32;40.28;;;2.80;99.90;;;;;;5050770;28;20028;-80
2020/12/12 06:50:52;;;;;;;97.65;39.67;;;2.80;99.90;;;;;;5052071;28;20025;-80
2020/12/12 06:53:21;;;;;;;96.90;41.20;;;2.80;99.90;;;;;;5054452;28;20028;-79
2020/12/12 06:56:13;;;;;;;101.40;41.55;;;2.80;99.90;;;;;;5071680;28;20028;-79
2020/12/12 06:58:39;;;;;;;94.28;39.03;;;2.80;99.90;;;;;;5071697;28;20500;-80
2020/12/12 07:01:30;;;;;;;90.47;38.78;;;2.80;99.90;;;;;;5070695;28;20033;-79
2020/12/12 07:04:04;;;;;;;97.25;40.70;;;2.80;99.90;;;;;;5064936;28;20070;-80
2020/12/12 07:06:31;;;;;;;108.13;43.72;;;2.80;99.90;;;;;;5050266;28;20040;-80
2020/12/12 07:09:03;;;;;;;98.63;41.45;;;2.80;99.90;;;;;;5051811;28;20021;-80
2020/12/12 07:11:31;;;;;;;94.70;40.83;;;2.80;99.90;;;;;;5050615;28;20104;-79
2020/12/12 07:13:57;;;;;;;102.13;41.25;;;2.80;99.90;;;;;;5063427;28;20095;-79
2020/12/12 07:16:24;;;;;;;86.95;38.13;;;2.80;99.90;;;;;;5071596;28;20035;-80
2020/12/12 07:18:50;;;;;;;95.30;41.58;;;2.80;99.90;;;;;;5070330;28;20059;-80
2020/12/12 07:21:18;;;;;;;92.50;37.50;;;2.80;99.90;;;;;;5071702;28;20064;-80
2020/12/12 07:23:47;;;;;;;100.82;40.17;;;2.80;99.90;;;;;;5063574;28;20033;-79
2020/12/12 07:26:13;;;;;;;96.47;38.38;;;2.80;99.90;;;;;;5051529;28;20017;-80
2020/12/12 07:28:39;;;;;;;83.22;37.63;;;2.80;99.90;;;;;;5051639;28;20078;-80
2020/12/12 07:31:04;;;;;;;92.10;38.35;;;2.80;99.90;;;;;;5050371;28;20025;-79
2020/12/12 07:33:31;;;;;;;89.53;38.50;;;2.80;99.90;;;;;;5054004;28;20032;-80
2020/12/12 07:35:57;;;;;;;86.53;36.45;;;2.80;99.90;;;;;;5071349;28;20028;-80
2020/12/12 07:38:23;;;;;;;99.95;40.13;;;2.80;99.90;;;;;;5071207;28;20036;-79
2020/12/12 07:40:49;;;;;;;93.68;39.65;;;2.80;99.90;;;;;;5071532;28;20031;-80
2020/12/12 07:43:15;;;;;;;97.88;38.67;;;2.90;99.90;;;;;;5063385;28;20025;-80
2020/12/12 07:48:16;;;;;;;99.75;39.78;;;2.80;99.90;;;;;;5052976;28;20079;-80
2020/12/12 07:50:42;;;;;;;105.97;41.83;;;2.70;99.90;;;;;;5071442;28;20082;-79
2020/12/12 07:53:13;;;;;;;107.90;41.45;;;2.70;99.90;;;;;;5068626;28;20473;-80
2020/12/12 07:55:43;;;;;;;113.40;42.45;;;2.70;99.90;;;;;;5049913;28;20021;-80
2020/12/12 07:58:19;;;;;;;99.63;41.30;;;2.70;99.90;;;;;;5054965;28;20033;-80
2020/12/12 08:00:45;;;;;;;113.03;43.97;;;2.80;99.90;;;;;;5054396;28;20546;-80
2020/12/12 08:03:10;;;;;;;120.18;43.67;;;2.80;99.90;;;;;;5059295;28;20028;-79
2020/12/12 08:05:37;;;;;;;133.70;48.63;;;2.90;99.90;;;;;;5055389;28;20017;-80
2020/12/12 08:08:11;;;;;;;139.65;50.10;;;2.90;99.90;;;;;;5055029;28;20087;-79
2020/12/12 08:10:38;;;;;;;121.25;47.47;;;2.90;99.90;;;;;;5074511;28;20052;-80
2020/12/12 08:13:03;;;;;;;133.52;48.40;;;3.00;99.90;;;;;;5072345;28;20020;-80
2020/12/12 08:15:35;;;;;;;122.10;46.28;;;3.00;99.90;;;;;;5074281;28;20036;-80
2020/12/12 08:18:14;;;;;;;129.23;48.75;;;2.90;99.90;;;;;;5076778;28;20395;-80
2020/12/12 08:20:39;;;;;;;130.15;47.35;;;3.00;99.90;;;;;;5089094;28;20024;-80
2020/12/12 08:23:10;;;;;;;138.68;49.25;;;3.00;99.90;;;;;;5073218;28;20028;-80
2020/12/12 08:25:36;;;;;;;135.23;51.08;;;3.00;99.90;;;;;;5073015;28;20021;-81
2020/12/12 08:28:05;;;;;;;142.02;51.45;;;3.00;99.90;;;;;;5074266;28;20040;-80
2020/12/12 08:30:31;;;;;;;122.57;48.25;;;3.00;99.90;;;;;;5073128;28;20556;-81
2020/12/12 08:33:07;;;;;;;139.55;49.70;;;3.00;99.90;;;;;;5070102;28;20123;-81
2020/12/12 08:35:33;;;;;;;158.35;52.38;;;3.00;99.90;;;;;;5052889;28;20025;-81
2020/12/12 08:38:01;;;;;;;130.77;50.33;;;3.00;99.90;;;;;;5054962;28;20033;-80
2020/12/12 08:40:48;;;;;;;125.15;47.22;;;3.00;99.90;;;;;;5054890;28;20052;-81
2020/12/12 08:43:15;;;;;;;123.55;46.58;;;3.10;99.90;;;;;;5057060;28;20095;-80
2020/12/12 08:45:43;;;;;;;126.45;46.35;;;3.10;99.90;;;;;;5073930;28;20020;-81
2020/12/12 08:48:14;;;;;;;128.70;48.03;;;3.10;99.90;;;;;;5074061;28;20496;-80
2020/12/12 08:50:59;;;;;;;129.63;47.92;;;3.10;99.90;;;;;;5074118;28;20024;-79
2020/12/12 08:53:28;;;;;;;130.35;47.53;;;3.10;99.90;;;;;;5069260;28;20111;-80
2020/12/12 08:56:05;;;;;;;122.10;46.20;;;3.10;99.90;;;;;;5054838;28;20035;-79
2020/12/12 08:58:32;;;;;;;124.25;46.15;;;3.10;99.90;;;;;;5057759;28;20139;-79
2020/12/12 09:01:10;;;;;;;119.47;48.00;;;3.10;99.90;;;;;;5071285;28;20590;-80
2020/12/12 09:03:53;;;;;;;115.65;44.45;;;3.10;99.90;;;;;;5074188;28;20025;-80
2020/12/12 09:06:19;;;;;;;122.78;47.72;;;3.10;99.90;;;;;;5052215;28;20024;-80
2020/12/12 09:08:45;;;;;;;127.65;45.67;;;3.10;99.90;;;;;;5053371;28;20017;-80
2020/12/12 09:11:21;;;;;;;132.85;46.95;;;3.10;99.90;;;;;;5064039;28;20025;-80
2020/12/12 09:13:47;;;;;;;131.10;49.38;;;3.10;99.90;;;;;;5058878;28;20036;-80
2020/12/12 09:16:13;;;;;;;135.30;47.72;;;3.20;99.90;;;;;;5071348;28;20028;-80
2020/12/12 09:18:43;;;;;;;137.80;48.28;;;3.10;99.90;;;;;;5067954;28;20039;-80
2020/12/12 09:21:08;;;;;;;136.93;50.47;;;3.20;99.90;;;;;;5073659;28;20028;-80
2020/12/12 09:23:34;;;;;;;135.98;51.60;;;3.10;99.90;;;;;;5060386;28;20098;-80
2020/12/12 09:25:59;;;;;;;143.57;50.80;;;3.20;99.90;;;;;;5072691;28;20106;-80
2020/12/12 09:28:26;;;;;;;141.63;49.55;;;3.10;99.90;;;;;;5067431;28;20021;-79
2020/12/12 09:30:51;;;;;;;135.50;51.15;;;3.20;99.90;;;;;;5053314;28;20469;-80
2020/12/12 09:33:17;;;;;;;147.30;51.63;;;3.20;99.90;;;;;;5053260;28;20033;-80
2020/12/12 09:35:42;;;;;;;145.20;50.17;;;3.20;99.90;;;;;;5067903;28;20025;-80
2020/12/12 09:38:08;;;;;;;137.68;48.35;;;3.20;99.90;;;;;;5071943;28;20081;-80
2020/12/12 09:40:34;;;;;;;147.02;51.65;;;3.20;99.90;;;;;;5067401;28;20057;-80
2020/12/12 09:43:00;;;;;;;132.48;47.85;;;3.20;99.90;;;;;;5053158;28;20382;-79
2020/12/12 09:45:25;;;;;;;140.98;50.67;;;3.30;99.90;;;;;;5052897;28;20078;-79
2020/12/12 09:47:51;;;;;;;140.07;47.72;;;3.30;99.90;;;;;;5065320;28;20116;-80
2020/12/12 09:50:16;;;;;;;145.55;51.08;;;3.30;99.90;;;;;;5054023;28;20028;-80
2020/12/12 09:52:42;;;;;;;151.10;51.95;;;3.20;99.90;;;;;;5053909;28;20710;-79
2020/12/12 09:55:07;;;;;;;162.30;56.72;;;3.30;99.90;;;;;;5051545;28;20021;-80
2020/12/12 09:57:33;;;;;;;172.45;56.15;;;3.20;99.90;;;;;;5052678;28;20552;-80
2020/12/12 09:59:59;;;;;;;168.23;57.33;;;3.30;99.90;;;;;;5052747;28;20425;-80
2020/12/12 10:02:25;;;;;;;163.93;54.22;;;3.20;99.90;;;;;;5051456;28;20656;-80
2020/12/12 10:04:50;;;;;;;158.55;52.60;;;3.20;99.90;;;;;;5051402;28;20104;-80
2020/12/12 10:07:19;;;;;;;156.88;52.80;;;3.20;99.90;;;;;;5057405;28;20066;-80
2020/12/12 10:09:44;;;;;;;158.57;55.15;;;3.30;99.90;;;;;;5072660;28;20023;-79
2020/12/12 10:12:10;;;;;;;156.70;54.95;;;3.30;99.90;;;;;;5070932;28;20404;-79
2020/12/12 10:14:35;;;;;;;159.00;54.58;;;3.30;99.90;;;;;;5072196;28;20026;-79
2020/12/12 10:17:01;;;;;;;161.07;53.90;;;3.30;99.90;;;;;;5062554;28;20035;-79
2020/12/12 10:19:26;;;;;;;170.70;55.00;;;3.40;99.90;;;;;;5052039;28;20036;-79
2020/12/12 10:21:52;;;;;;;151.63;53.60;;;3.50;99.90;;;;;;5050700;28;20485;-79
2020/12/12 10:24:17;;;;;;;152.93;53.80;;;3.60;99.90;;;;;;5052164;28;20477;-79
2020/12/12 10:26:45;;;;;;;138.20;50.83;;;3.60;99.90;;;;;;5054664;28;20454;-79
2020/12/12 10:29:11;;;;;;;154.60;52.95;;;3.70;99.90;;;;;;5072061;28;20065;-79
2020/12/12 10:31:36;;;;;;;140.02;49.13;;;3.70;99.90;;;;;;5071991;28;20052;-78
2020/12/12 10:34:02;;;;;;;143.93;49.90;;;3.70;99.90;;;;;;5071950;28;20524;-79
2020/12/12 10:36:28;;;;;;;130.20;48.65;;;3.70;99.90;;;;;;5072189;28;20485;-79
2020/12/12 10:38:53;;;;;;;153.10;54.17;;;3.70;99.90;;;;;;5054050;28;20052;-78
2020/12/12 10:41:19;;;;;;;144.73;51.10;;;3.80;99.90;;;;;;5050780;28;20107;-79
2020/12/12 10:43:44;;;;;;;159.30;52.65;;;3.80;99.90;;;;;;5050462;28;20122;-79
2020/12/12 10:46:10;;;;;;;144.35;51.80;;;3.80;99.90;;;;;;5052987;28;20025;-79
2020/12/12 10:48:36;;;;;;;154.52;54.45;;;3.90;99.90;;;;;;5071968;28;20020;-79
2020/12/12 10:51:01;;;;;;;140.02;50.40;;;3.90;99.90;;;;;;5070750;28;20074;-80
2020/12/12 10:53:27;;;;;;;143.38;50.45;;;4.00;99.90;;;;;;5071991;28;20020;-80
2020/12/12 10:55:52;;;;;;;145.95;51.38;;;4.10;99.90;;;;;;5070374;28;20056;-81
2020/12/12 10:58:18;;;;;;;132.43;49.58;;;4.10;99.90;;;;;;5055590;28;20036;-81
2020/12/12 11:00:48;;;;;;;138.68;50.10;;;4.10;99.90;;;;;;5050679;28;20124;-81
2020/12/12 11:03:13;;;;;;;132.80;50.20;;;4.10;99.90;;;;;;5051598;28;20079;-81
2020/12/12 11:05:39;;;;;;;137.38;49.53;;;4.20;99.90;;;;;;5050339;28;20064;-82
2020/12/12 11:08:05;;;;;;;144.73;48.05;;;4.30;99.90;;;;;;5062773;28;20028;-81
2020/12/12 11:10:31;;;;;;;139.25;48.92;;;4.20;99.90;;;;;;5071686;28;20502;-81
2020/12/12 11:12:56;;;;;;;139.75;50.40;;;4.10;99.90;;;;;;5071606;28;20111;-80
2020/12/12 11:15:22;;;;;;;122.05;47.80;;;4.10;99.90;;;;;;5070236;28;20027;-80
2020/12/12 11:17:47;;;;;;;135.27;50.17;;;4.10;99.90;;;;;;5069470;28;20042;-79
2020/12/12 11:20:16;;;;;;;135.38;45.60;;;4.10;99.90;;;;;;5071753;28;20071;-79
2020/12/12 11:22:43;;;;;;;133.88;49.08;;;4.00;99.90;;;;;;5071586;28;20025;-79
2020/12/12 11:25:09;;;;;;;137.50;49.47;;;4.00;99.90;;;;;;5071470;28;20070;-80
2020/12/12 11:27:35;;;;;;;127.28;48.08;;;4.00;99.90;;;;;;5061829;28;20086;-80
2020/12/12 11:30:03;;;;;;;146.48;50.20;;;4.00;99.90;;;;;;5051578;28;20025;-80
2020/12/12 11:32:29;;;;;;;139.23;49.40;;;4.00;99.90;;;;;;5053019;28;20428;-80
2020/12/12 11:35:19;;;;;;;132.88;48.47;;;3.90;99.90;;;;;;5055372;28;20021;-79
2020/12/12 11:43:39;;;;;;;143.27;48.30;;;4.10;99.90;;;;;;5062002;28;20020;-80
2020/12/12 11:48:09;;;;;;;130.77;51.60;;;4.20;99.90;;;;;;5074141;28;20459;-79
2020/12/12 11:50:35;;;;;;;144.75;51.50;;;4.20;99.90;;;;;;5075182;28;20075;-79
2020/12/12 11:53:01;;;;;;;122.05;47.10;;;4.20;99.90;;;;;;5075239;28;20046;-79
2020/12/12 11:55:26;;;;;;;138.55;51.15;;;4.20;99.90;;;;;;5075084;28;20036;-87
2020/12/12 11:57:52;;;;;;;136.20;50.13;;;4.30;99.90;;;;;;5073449;28;20503;-79
2020/12/12 12:00:18;;;;;;;142.93;49.28;;;4.20;99.90;;;;;;5075214;28;20025;-79
2020/12/12 12:02:44;;;;;;;139.25;50.10;;;4.20;99.90;;;;;;5071131;28;20500;-80
2020/12/12 12:05:10;;;;;;;138.75;51.50;;;4.20;99.90;;;;;;5057427;28;20035;-79
2020/12/12 12:07:43;;;;;;;134.82;50.50;;;4.20;99.90;;;;;;5060269;28;20098;-79
2020/12/12 12:10:17;;;;;;;155.13;55.00;;;4.30;99.90;;;;;;5062516;28;20029;-79
2020/12/12 12:12:43;;;;;;;146.40;52.40;;;4.30;99.90;;;;;;5054808;28;20029;-79
2020/12/12 12:15:08;;;;;;;153.48;52.95;;;4.30;99.90;;;;;;5053457;28;20025;-79
2020/12/12 12:17:34;;;;;;;143.15;52.88;;;4.40;99.90;;;;;;5066432;28;20525;-79
2020/12/12 12:20:00;;;;;;;148.82;49.63;;;4.40;99.90;;;;;;5073185;28;20120;-79
2020/12/12 12:22:25;;;;;;;141.77;51.85;;;4.40;99.90;;;;;;5073978;28;20028;-79
2020/12/12 12:24:51;;;;;;;143.65;53.08;;;4.50;99.90;;;;;;5074449;28;20016;-78
2020/12/12 12:27:17;;;;;;;147.27;54.45;;;4.40;99.90;;;;;;5072422;28;20102;-79
2020/12/12 12:29:42;;;;;;;140.93;53.28;;;4.40;99.90;;;;;;5073659;28;20021;-79
2020/12/12 12:32:10;;;;;;;132.98;49.75;;;4.40;99.90;;;;;;5063262;28;20028;-88
2020/12/12 12:34:35;;;;;;;132.95;50.05;;;4.30;99.90;;;;;;5052963;28;20060;-79
2020/12/12 12:37:01;;;;;;;137.85;50.83;;;4.20;99.90;;;;;;5055442;28;20135;-79
2020/12/12 12:39:27;;;;;;;126.28;47.85;;;4.20;99.90;;;;;;5073367;28;20028;-79